sensor_id;sensor_type;location;lat;lon;timestamp;P1;durP1;ratioP1;P2;durP2;ratioP2
36799;SDS011;22752;51.960;5.886;2024-02-26T00:01:00;7.70;;;3.37;;
36799;SDS011;22752;51.960;5.886;2024-02-26T00:03:27;5.83;;;3.33;;
36799;SDS011;22752;51.960;5.886;2024-02-26T00:05:52;4.97;;;3.43;;
36799;SDS011;22752;51.960;5.886;2024-02-26T00:08:18;4.70;;;3.10;;
36799;SDS011;22752;51.960;5.886;2024-02-26T00:10:44;4.67;;;3.23;;
36799;SDS011;22752;51.960;5.886;2024-02-26T00:13:09;4.67;;;3.40;;
36799;SDS011;22752;51.960;5.886;2024-02-26T00:15:35;6.60;;;3.47;;
36799;SDS011;22752;51.960;5.886;2024-02-26T00:18:01;4.57;;;3.33;;
36799;SDS011;22752;51.960;5.886;2024-02-26T00:20:27;5.23;;;3.10;;
36799;SDS011;22752;51.960;5.886;2024-02-26T00:22:52;6.70;;;3.80;;
36799;SDS011;22752;51.960;5.886;2024-02-26T00:25:18;5.53;;;3.63;;
36799;SDS011;22752;51.960;5.886;2024-02-26T00:27:43;3.97;;;3.37;;
36799;SDS011;22752;51.960;5.886;2024-02-26T00:30:09;6.03;;;3.37;;
36799;SDS011;22752;51.960;5.886;2024-02-26T00:32:35;5.73;;;3.83;;
36799;SDS011;22752;51.960;5.886;2024-02-26T00:35:01;4.87;;;3.47;;
36799;SDS011;22752;51.960;5.886;2024-02-26T00:37:27;4.17;;;3.47;;
36799;SDS011;22752;51.960;5.886;2024-02-26T00:39:52;6.07;;;4.30;;
36799;SDS011;22752;51.960;5.886;2024-02-26T00:42:19;4.70;;;3.47;;
36799;SDS011;22752;51.960;5.886;2024-02-26T00:44:44;6.43;;;4.00;;
36799;SDS011;22752;51.960;5.886;2024-02-26T00:47:10;6.77;;;3.83;;
36799;SDS011;22752;51.960;5.886;2024-02-26T00:49:36;6.70;;;4.10;;
36799;SDS011;22752;51.960;5.886;2024-02-26T00:52:02;3.77;;;3.33;;
36799;SDS011;22752;51.960;5.886;2024-02-26T00:54:28;5.57;;;3.20;;
36799;SDS011;22752;51.960;5.886;2024-02-26T00:56:54;6.37;;;3.90;;
36799;SDS011;22752;51.960;5.886;2024-02-26T00:59:19;7.30;;;3.07;;
36799;SDS011;22752;51.960;5.886;2024-02-26T01:01:45;5.00;;;3.30;;
36799;SDS011;22752;51.960;5.886;2024-02-26T01:04:10;4.50;;;3.30;;
36799;SDS011;22752;51.960;5.886;2024-02-26T01:06:37;4.60;;;3.27;;
36799;SDS011;22752;51.960;5.886;2024-02-26T01:09:03;3.93;;;3.30;;
36799;SDS011;22752;51.960;5.886;2024-02-26T01:11:28;5.57;;;3.10;;
36799;SDS011;22752;51.960;5.886;2024-02-26T01:13:54;6.10;;;3.43;;
36799;SDS011;22752;51.960;5.886;2024-02-26T01:16:22;3.67;;;3.00;;
36799;SDS011;22752;51.960;5.886;2024-02-26T01:18:48;8.10;;;4.83;;
36799;SDS011;22752;51.960;5.886;2024-02-26T01:21:13;10.40;;;5.73;;
36799;SDS011;22752;51.960;5.886;2024-02-26T01:23:39;23.17;;;12.07;;
36799;SDS011;22752;51.960;5.886;2024-02-26T01:26:05;27.20;;;13.07;;
36799;SDS011;22752;51.960;5.886;2024-02-26T01:28:31;15.53;;;9.60;;
36799;SDS011;22752;51.960;5.886;2024-02-26T01:30:56;14.47;;;6.53;;
36799;SDS011;22752;51.960;5.886;2024-02-26T01:33:23;9.57;;;5.03;;
36799;SDS011;22752;51.960;5.886;2024-02-26T01:35:50;5.30;;;2.40;;
36799;SDS011;22752;51.960;5.886;2024-02-26T01:38:16;4.00;;;2.53;;
36799;SDS011;22752;51.960;5.886;2024-02-26T01:40:41;3.27;;;2.57;;
36799;SDS011;22752;51.960;5.886;2024-02-26T01:43:07;5.37;;;2.50;;
36799;SDS011;22752;51.960;5.886;2024-02-26T01:45:33;5.20;;;2.37;;
36799;SDS011;22752;51.960;5.886;2024-02-26T01:47:58;3.27;;;2.10;;
36799;SDS011;22752;51.960;5.886;2024-02-26T01:50:24;3.77;;;2.20;;
36799;SDS011;22752;51.960;5.886;2024-02-26T01:52:51;3.97;;;2.40;;
36799;SDS011;22752;51.960;5.886;2024-02-26T01:55:18;3.00;;;2.10;;
36799;SDS011;22752;51.960;5.886;2024-02-26T01:57:45;4.63;;;2.23;;
36799;SDS011;22752;51.960;5.886;2024-02-26T02:00:13;3.57;;;2.80;;
36799;SDS011;22752;51.960;5.886;2024-02-26T02:02:41;3.53;;;2.77;;
36799;SDS011;22752;51.960;5.886;2024-02-26T02:05:09;6.77;;;2.70;;
36799;SDS011;22752;51.960;5.886;2024-02-26T02:07:36;4.47;;;2.70;;
36799;SDS011;22752;51.960;5.886;2024-02-26T02:10:02;4.57;;;2.70;;
36799;SDS011;22752;51.960;5.886;2024-02-26T02:12:30;5.20;;;3.40;;
36799;SDS011;22752;51.960;5.886;2024-02-26T02:14:58;4.90;;;3.20;;
36799;SDS011;22752;51.960;5.886;2024-02-26T02:17:24;5.20;;;3.37;;
36799;SDS011;22752;51.960;5.886;2024-02-26T02:19:49;5.90;;;3.80;;
36799;SDS011;22752;51.960;5.886;2024-02-26T02:22:15;6.13;;;3.60;;
36799;SDS011;22752;51.960;5.886;2024-02-26T02:24:41;7.13;;;3.90;;
36799;SDS011;22752;51.960;5.886;2024-02-26T02:27:07;5.23;;;3.20;;
36799;SDS011;22752;51.960;5.886;2024-02-26T02:29:32;6.20;;;4.00;;
36799;SDS011;22752;51.960;5.886;2024-02-26T02:31:58;4.60;;;4.00;;
36799;SDS011;22752;51.960;5.886;2024-02-26T02:34:26;4.37;;;3.23;;
36799;SDS011;22752;51.960;5.886;2024-02-26T02:36:52;4.87;;;3.80;;
36799;SDS011;22752;51.960;5.886;2024-02-26T02:39:18;7.40;;;4.00;;
36799;SDS011;22752;51.960;5.886;2024-02-26T02:41:44;6.17;;;3.63;;
36799;SDS011;22752;51.960;5.886;2024-02-26T02:44:10;6.57;;;4.23;;
36799;SDS011;22752;51.960;5.886;2024-02-26T02:46:35;4.57;;;3.67;;
36799;SDS011;22752;51.960;5.886;2024-02-26T02:49:01;5.03;;;3.67;;
36799;SDS011;22752;51.960;5.886;2024-02-26T02:51:27;5.97;;;4.00;;
36799;SDS011;22752;51.960;5.886;2024-02-26T02:53:52;5.17;;;3.97;;
36799;SDS011;22752;51.960;5.886;2024-02-26T02:56:18;7.13;;;4.30;;
36799;SDS011;22752;51.960;5.886;2024-02-26T02:58:44;5.67;;;3.80;;
36799;SDS011;22752;51.960;5.886;2024-02-26T03:01:10;5.40;;;3.70;;
36799;SDS011;22752;51.960;5.886;2024-02-26T03:03:36;5.43;;;3.80;;
36799;SDS011;22752;51.960;5.886;2024-02-26T03:06:02;6.33;;;4.33;;
36799;SDS011;22752;51.960;5.886;2024-02-26T03:08:28;5.13;;;3.70;;
36799;SDS011;22752;51.960;5.886;2024-02-26T03:10:54;4.90;;;3.53;;
36799;SDS011;22752;51.960;5.886;2024-02-26T03:13:20;6.73;;;3.57;;
36799;SDS011;22752;51.960;5.886;2024-02-26T03:15:46;5.40;;;3.73;;
36799;SDS011;22752;51.960;5.886;2024-02-26T03:18:11;4.80;;;3.30;;
36799;SDS011;22752;51.960;5.886;2024-02-26T03:20:37;5.43;;;3.93;;
36799;SDS011;22752;51.960;5.886;2024-02-26T03:23:03;5.67;;;3.30;;
36799;SDS011;22752;51.960;5.886;2024-02-26T03:25:29;5.37;;;3.60;;
36799;SDS011;22752;51.960;5.886;2024-02-26T03:27:54;4.40;;;3.40;;
36799;SDS011;22752;51.960;5.886;2024-02-26T03:30:20;4.27;;;3.50;;
36799;SDS011;22752;51.960;5.886;2024-02-26T03:32:45;6.87;;;3.63;;
36799;SDS011;22752;51.960;5.886;2024-02-26T03:35:12;5.70;;;3.37;;
36799;SDS011;22752;51.960;5.886;2024-02-26T03:37:38;4.67;;;3.83;;
36799;SDS011;22752;51.960;5.886;2024-02-26T03:40:04;5.90;;;3.70;;
36799;SDS011;22752;51.960;5.886;2024-02-26T03:42:31;5.40;;;3.60;;
36799;SDS011;22752;51.960;5.886;2024-02-26T03:44:56;3.80;;;3.10;;
36799;SDS011;22752;51.960;5.886;2024-02-26T03:47:22;4.13;;;3.27;;
36799;SDS011;22752;51.960;5.886;2024-02-26T03:49:47;4.07;;;3.47;;
36799;SDS011;22752;51.960;5.886;2024-02-26T03:52:13;4.93;;;3.33;;
36799;SDS011;22752;51.960;5.886;2024-02-26T03:54:40;5.33;;;3.63;;
36799;SDS011;22752;51.960;5.886;2024-02-26T03:57:05;4.07;;;3.50;;
36799;SDS011;22752;51.960;5.886;2024-02-26T03:59:31;4.47;;;3.33;;
36799;SDS011;22752;51.960;5.886;2024-02-26T04:01:57;5.13;;;3.30;;
36799;SDS011;22752;51.960;5.886;2024-02-26T04:04:22;3.60;;;3.10;;
36799;SDS011;22752;51.960;5.886;2024-02-26T04:06:48;3.40;;;2.93;;
36799;SDS011;22752;51.960;5.886;2024-02-26T04:09:14;3.23;;;2.93;;
36799;SDS011;22752;51.960;5.886;2024-02-26T04:11:40;4.33;;;3.20;;
36799;SDS011;22752;51.960;5.886;2024-02-26T04:14:06;3.93;;;3.00;;
36799;SDS011;22752;51.960;5.886;2024-02-26T04:16:33;3.63;;;3.23;;
36799;SDS011;22752;51.960;5.886;2024-02-26T04:19:00;5.13;;;3.60;;
36799;SDS011;22752;51.960;5.886;2024-02-26T04:21:26;5.17;;;3.40;;
36799;SDS011;22752;51.960;5.886;2024-02-26T04:23:52;5.00;;;3.53;;
36799;SDS011;22752;51.960;5.886;2024-02-26T04:26:20;4.43;;;3.23;;
36799;SDS011;22752;51.960;5.886;2024-02-26T04:28:46;3.50;;;3.20;;
36799;SDS011;22752;51.960;5.886;2024-02-26T04:31:12;4.40;;;3.57;;
36799;SDS011;22752;51.960;5.886;2024-02-26T04:33:38;5.20;;;4.33;;
36799;SDS011;22752;51.960;5.886;2024-02-26T04:36:03;6.00;;;4.43;;
36799;SDS011;22752;51.960;5.886;2024-02-26T04:38:29;5.10;;;4.40;;
36799;SDS011;22752;51.960;5.886;2024-02-26T04:40:55;8.17;;;4.23;;
36799;SDS011;22752;51.960;5.886;2024-02-26T04:43:21;5.07;;;4.50;;
36799;SDS011;22752;51.960;5.886;2024-02-26T04:45:46;7.37;;;4.93;;
36799;SDS011;22752;51.960;5.886;2024-02-26T04:48:13;6.10;;;4.53;;
36799;SDS011;22752;51.960;5.886;2024-02-26T04:50:38;5.40;;;4.63;;
36799;SDS011;22752;51.960;5.886;2024-02-26T04:53:04;6.20;;;4.80;;
36799;SDS011;22752;51.960;5.886;2024-02-26T04:55:30;6.53;;;4.47;;
36799;SDS011;22752;51.960;5.886;2024-02-26T04:57:55;6.70;;;5.47;;
36799;SDS011;22752;51.960;5.886;2024-02-26T05:00:21;6.70;;;4.83;;
36799;SDS011;22752;51.960;5.886;2024-02-26T05:02:46;9.80;;;5.20;;
36799;SDS011;22752;51.960;5.886;2024-02-26T05:05:12;7.57;;;5.47;;
36799;SDS011;22752;51.960;5.886;2024-02-26T05:07:41;6.83;;;5.23;;
36799;SDS011;22752;51.960;5.886;2024-02-26T05:10:08;7.57;;;5.90;;
36799;SDS011;22752;51.960;5.886;2024-02-26T05:12:34;6.77;;;5.87;;
36799;SDS011;22752;51.960;5.886;2024-02-26T05:15:01;6.27;;;4.90;;
36799;SDS011;22752;51.960;5.886;2024-02-26T05:17:27;7.23;;;5.60;;
36799;SDS011;22752;51.960;5.886;2024-02-26T05:19:53;5.80;;;5.20;;
36799;SDS011;22752;51.960;5.886;2024-02-26T05:22:19;6.70;;;5.10;;
36799;SDS011;22752;51.960;5.886;2024-02-26T05:24:45;5.83;;;4.40;;
36799;SDS011;22752;51.960;5.886;2024-02-26T05:27:11;6.33;;;5.23;;
36799;SDS011;22752;51.960;5.886;2024-02-26T05:29:37;6.87;;;5.50;;
36799;SDS011;22752;51.960;5.886;2024-02-26T05:32:03;6.80;;;5.43;;
36799;SDS011;22752;51.960;5.886;2024-02-26T05:34:30;8.30;;;5.90;;
36799;SDS011;22752;51.960;5.886;2024-02-26T05:36:56;7.40;;;5.67;;
36799;SDS011;22752;51.960;5.886;2024-02-26T05:39:22;8.23;;;6.07;;
36799;SDS011;22752;51.960;5.886;2024-02-26T05:41:47;8.23;;;5.90;;
36799;SDS011;22752;51.960;5.886;2024-02-26T05:44:14;7.70;;;5.87;;
36799;SDS011;22752;51.960;5.886;2024-02-26T05:46:41;7.97;;;6.63;;
36799;SDS011;22752;51.960;5.886;2024-02-26T05:49:07;7.97;;;6.73;;
36799;SDS011;22752;51.960;5.886;2024-02-26T05:51:33;8.13;;;6.47;;
36799;SDS011;22752;51.960;5.886;2024-02-26T05:53:59;9.80;;;6.60;;
36799;SDS011;22752;51.960;5.886;2024-02-26T05:56:24;8.97;;;6.60;;
36799;SDS011;22752;51.960;5.886;2024-02-26T05:58:50;10.17;;;6.53;;
36799;SDS011;22752;51.960;5.886;2024-02-26T06:01:16;8.07;;;6.07;;
36799;SDS011;22752;51.960;5.886;2024-02-26T06:03:43;7.77;;;5.70;;
36799;SDS011;22752;51.960;5.886;2024-02-26T06:06:10;9.20;;;6.53;;
36799;SDS011;22752;51.960;5.886;2024-02-26T06:08:36;7.70;;;6.40;;
36799;SDS011;22752;51.960;5.886;2024-02-26T06:11:05;7.97;;;5.73;;
36799;SDS011;22752;51.960;5.886;2024-02-26T06:13:32;7.00;;;5.77;;
36799;SDS011;22752;51.960;5.886;2024-02-26T06:15:58;7.57;;;5.93;;
36799;SDS011;22752;51.960;5.886;2024-02-26T06:18:23;7.47;;;5.73;;
36799;SDS011;22752;51.960;5.886;2024-02-26T06:20:49;8.87;;;6.07;;
36799;SDS011;22752;51.960;5.886;2024-02-26T06:23:15;7.10;;;5.60;;
36799;SDS011;22752;51.960;5.886;2024-02-26T06:25:41;6.57;;;5.07;;
36799;SDS011;22752;51.960;5.886;2024-02-26T06:28:07;6.37;;;5.07;;
36799;SDS011;22752;51.960;5.886;2024-02-26T06:30:33;6.97;;;5.40;;
36799;SDS011;22752;51.960;5.886;2024-02-26T06:32:59;6.60;;;5.27;;
36799;SDS011;22752;51.960;5.886;2024-02-26T06:35:25;7.20;;;5.73;;
36799;SDS011;22752;51.960;5.886;2024-02-26T06:37:51;7.53;;;5.93;;
36799;SDS011;22752;51.960;5.886;2024-02-26T06:40:18;7.50;;;6.10;;
36799;SDS011;22752;51.960;5.886;2024-02-26T06:42:46;8.60;;;5.80;;
36799;SDS011;22752;51.960;5.886;2024-02-26T06:45:12;8.60;;;6.70;;
36799;SDS011;22752;51.960;5.886;2024-02-26T06:47:38;8.57;;;5.90;;
36799;SDS011;22752;51.960;5.886;2024-02-26T06:50:03;9.50;;;6.80;;
36799;SDS011;22752;51.960;5.886;2024-02-26T06:52:29;7.67;;;6.33;;
36799;SDS011;22752;51.960;5.886;2024-02-26T06:54:55;8.57;;;6.73;;
36799;SDS011;22752;51.960;5.886;2024-02-26T06:57:21;9.77;;;6.83;;
36799;SDS011;22752;51.960;5.886;2024-02-26T06:59:46;8.80;;;6.80;;
36799;SDS011;22752;51.960;5.886;2024-02-26T07:02:13;13.23;;;7.67;;
36799;SDS011;22752;51.960;5.886;2024-02-26T07:04:39;8.33;;;7.10;;
36799;SDS011;22752;51.960;5.886;2024-02-26T07:07:05;9.70;;;7.57;;
36799;SDS011;22752;51.960;5.886;2024-02-26T07:09:32;8.93;;;7.70;;
36799;SDS011;22752;51.960;5.886;2024-02-26T07:11:57;12.47;;;8.40;;
36799;SDS011;22752;51.960;5.886;2024-02-26T07:14:23;11.17;;;7.90;;
36799;SDS011;22752;51.960;5.886;2024-02-26T07:16:49;11.33;;;8.10;;
36799;SDS011;22752;51.960;5.886;2024-02-26T07:19:15;11.67;;;9.20;;
36799;SDS011;22752;51.960;5.886;2024-02-26T07:21:41;12.17;;;9.30;;
36799;SDS011;22752;51.960;5.886;2024-02-26T07:24:08;14.20;;;9.97;;
36799;SDS011;22752;51.960;5.886;2024-02-26T07:26:36;11.73;;;8.93;;
36799;SDS011;22752;51.960;5.886;2024-02-26T07:29:01;11.53;;;9.60;;
36799;SDS011;22752;51.960;5.886;2024-02-26T07:31:29;13.23;;;9.90;;
36799;SDS011;22752;51.960;5.886;2024-02-26T07:33:54;12.67;;;9.80;;
36799;SDS011;22752;51.960;5.886;2024-02-26T07:36:20;14.43;;;10.23;;
36799;SDS011;22752;51.960;5.886;2024-02-26T07:38:45;14.50;;;10.90;;
36799;SDS011;22752;51.960;5.886;2024-02-26T07:41:11;16.37;;;11.87;;
36799;SDS011;22752;51.960;5.886;2024-02-26T07:43:37;16.40;;;12.47;;
36799;SDS011;22752;51.960;5.886;2024-02-26T07:46:02;17.47;;;12.37;;
36799;SDS011;22752;51.960;5.886;2024-02-26T07:48:28;15.43;;;12.30;;
36799;SDS011;22752;51.960;5.886;2024-02-26T07:50:54;18.07;;;13.17;;
36799;SDS011;22752;51.960;5.886;2024-02-26T07:53:20;17.57;;;13.27;;
36799;SDS011;22752;51.960;5.886;2024-02-26T07:55:45;18.17;;;13.57;;
36799;SDS011;22752;51.960;5.886;2024-02-26T07:58:11;19.57;;;13.27;;
36799;SDS011;22752;51.960;5.886;2024-02-26T08:00:37;19.47;;;13.67;;
36799;SDS011;22752;51.960;5.886;2024-02-26T08:03:02;20.50;;;14.53;;
36799;SDS011;22752;51.960;5.886;2024-02-26T08:05:28;21.17;;;15.13;;
36799;SDS011;22752;51.960;5.886;2024-02-26T08:07:53;24.83;;;15.43;;
36799;SDS011;22752;51.960;5.886;2024-02-26T08:10:19;21.53;;;16.30;;
36799;SDS011;22752;51.960;5.886;2024-02-26T08:12:45;24.23;;;16.77;;
36799;SDS011;22752;51.960;5.886;2024-02-26T08:15:11;23.43;;;16.53;;
36799;SDS011;22752;51.960;5.886;2024-02-26T08:17:37;25.37;;;16.13;;
36799;SDS011;22752;51.960;5.886;2024-02-26T08:20:03;23.13;;;16.00;;
36799;SDS011;22752;51.960;5.886;2024-02-26T08:22:29;24.00;;;16.37;;
36799;SDS011;22752;51.960;5.886;2024-02-26T08:24:55;27.73;;;17.17;;
36799;SDS011;22752;51.960;5.886;2024-02-26T08:27:21;25.27;;;15.87;;
36799;SDS011;22752;51.960;5.886;2024-02-26T08:29:46;27.07;;;17.93;;
36799;SDS011;22752;51.960;5.886;2024-02-26T08:32:12;23.90;;;16.17;;
36799;SDS011;22752;51.960;5.886;2024-02-26T08:34:37;32.77;;;16.23;;
36799;SDS011;22752;51.960;5.886;2024-02-26T08:37:03;26.63;;;17.67;;
36799;SDS011;22752;51.960;5.886;2024-02-26T08:39:29;24.80;;;16.77;;
36799;SDS011;22752;51.960;5.886;2024-02-26T08:41:56;24.03;;;15.73;;
36799;SDS011;22752;51.960;5.886;2024-02-26T08:44:22;25.63;;;16.83;;
36799;SDS011;22752;51.960;5.886;2024-02-26T08:46:48;27.97;;;17.03;;
36799;SDS011;22752;51.960;5.886;2024-02-26T08:49:13;23.47;;;15.87;;
36799;SDS011;22752;51.960;5.886;2024-02-26T08:51:41;27.10;;;17.37;;
36799;SDS011;22752;51.960;5.886;2024-02-26T08:54:08;26.13;;;16.07;;
36799;SDS011;22752;51.960;5.886;2024-02-26T08:56:33;28.17;;;16.73;;
36799;SDS011;22752;51.960;5.886;2024-02-26T08:58:59;27.40;;;17.73;;
36799;SDS011;22752;51.960;5.886;2024-02-26T09:01:28;27.23;;;17.50;;
36799;SDS011;22752;51.960;5.886;2024-02-26T09:03:57;29.00;;;18.13;;
36799;SDS011;22752;51.960;5.886;2024-02-26T09:06:23;27.47;;;16.93;;
36799;SDS011;22752;51.960;5.886;2024-02-26T09:08:49;32.63;;;19.53;;
36799;SDS011;22752;51.960;5.886;2024-02-26T09:11:14;33.03;;;18.73;;
36799;SDS011;22752;51.960;5.886;2024-02-26T09:13:40;29.70;;;18.73;;
36799;SDS011;22752;51.960;5.886;2024-02-26T09:16:07;29.93;;;18.07;;
36799;SDS011;22752;51.960;5.886;2024-02-26T09:18:33;35.23;;;20.07;;
36799;SDS011;22752;51.960;5.886;2024-02-26T09:20:58;31.80;;;19.33;;
36799;SDS011;22752;51.960;5.886;2024-02-26T09:23:24;30.87;;;19.27;;
36799;SDS011;22752;51.960;5.886;2024-02-26T09:25:50;29.93;;;19.10;;
36799;SDS011;22752;51.960;5.886;2024-02-26T09:28:15;32.40;;;18.93;;
36799;SDS011;22752;51.960;5.886;2024-02-26T09:30:42;35.43;;;18.83;;
36799;SDS011;22752;51.960;5.886;2024-02-26T09:33:11;32.43;;;19.13;;
36799;SDS011;22752;51.960;5.886;2024-02-26T09:35:38;31.97;;;19.10;;
36799;SDS011;22752;51.960;5.886;2024-02-26T09:38:04;35.77;;;20.73;;
36799;SDS011;22752;51.960;5.886;2024-02-26T09:40:29;31.53;;;19.33;;
36799;SDS011;22752;51.960;5.886;2024-02-26T09:42:59;33.67;;;18.93;;
36799;SDS011;22752;51.960;5.886;2024-02-26T09:45:26;32.93;;;18.83;;
36799;SDS011;22752;51.960;5.886;2024-02-26T09:47:53;30.63;;;19.27;;
36799;SDS011;22752;51.960;5.886;2024-02-26T09:50:21;29.63;;;18.13;;
36799;SDS011;22752;51.960;5.886;2024-02-26T09:52:49;28.53;;;17.63;;
36799;SDS011;22752;51.960;5.886;2024-02-26T09:55:16;32.93;;;18.57;;
36799;SDS011;22752;51.960;5.886;2024-02-26T09:57:43;32.23;;;18.23;;
36799;SDS011;22752;51.960;5.886;2024-02-26T10:00:12;33.23;;;19.00;;
36799;SDS011;22752;51.960;5.886;2024-02-26T10:02:43;34.35;;;18.75;;
36799;SDS011;22752;51.960;5.886;2024-02-26T10:05:10;28.93;;;18.03;;
36799;SDS011;22752;51.960;5.886;2024-02-26T10:07:39;30.73;;;18.67;;
36799;SDS011;22752;51.960;5.886;2024-02-26T10:10:07;28.53;;;17.70;;
36799;SDS011;22752;51.960;5.886;2024-02-26T10:12:33;28.60;;;17.17;;
36799;SDS011;22752;51.960;5.886;2024-02-26T10:14:59;25.20;;;16.93;;
36799;SDS011;22752;51.960;5.886;2024-02-26T10:17:26;25.67;;;16.73;;
36799;SDS011;22752;51.960;5.886;2024-02-26T10:19:51;26.87;;;17.17;;
36799;SDS011;22752;51.960;5.886;2024-02-26T10:22:21;25.97;;;16.30;;
36799;SDS011;22752;51.960;5.886;2024-02-26T10:24:47;28.73;;;16.57;;
36799;SDS011;22752;51.960;5.886;2024-02-26T10:27:13;25.30;;;16.87;;
36799;SDS011;22752;51.960;5.886;2024-02-26T10:29:40;29.23;;;17.50;;
36799;SDS011;22752;51.960;5.886;2024-02-26T10:32:08;26.10;;;16.80;;
36799;SDS011;22752;51.960;5.886;2024-02-26T10:34:34;24.87;;;15.97;;
36799;SDS011;22752;51.960;5.886;2024-02-26T10:37:03;26.87;;;16.40;;
36799;SDS011;22752;51.960;5.886;2024-02-26T10:39:29;24.77;;;15.97;;
36799;SDS011;22752;51.960;5.886;2024-02-26T10:41:55;24.83;;;16.87;;
36799;SDS011;22752;51.960;5.886;2024-02-26T10:44:21;25.03;;;15.93;;
36799;SDS011;22752;51.960;5.886;2024-02-26T10:46:47;26.40;;;17.67;;
36799;SDS011;22752;51.960;5.886;2024-02-26T10:49:16;24.97;;;15.63;;
36799;SDS011;22752;51.960;5.886;2024-02-26T10:51:44;23.03;;;16.50;;
36799;SDS011;22752;51.960;5.886;2024-02-26T10:54:11;25.70;;;15.70;;
36799;SDS011;22752;51.960;5.886;2024-02-26T10:56:41;25.30;;;17.23;;
36799;SDS011;22752;51.960;5.886;2024-02-26T10:59:09;25.90;;;17.13;;
36799;SDS011;22752;51.960;5.886;2024-02-26T11:01:38;27.10;;;17.50;;
36799;SDS011;22752;51.960;5.886;2024-02-26T11:04:06;23.60;;;16.27;;
36799;SDS011;22752;51.960;5.886;2024-02-26T11:06:33;25.30;;;16.50;;
36799;SDS011;22752;51.960;5.886;2024-02-26T11:09:00;26.57;;;16.97;;
36799;SDS011;22752;51.960;5.886;2024-02-26T11:11:27;27.27;;;17.27;;
36799;SDS011;22752;51.960;5.886;2024-02-26T11:13:54;29.77;;;18.60;;
36799;SDS011;22752;51.960;5.886;2024-02-26T11:16:21;26.93;;;17.67;;
36799;SDS011;22752;51.960;5.886;2024-02-26T11:18:48;26.17;;;17.37;;
36799;SDS011;22752;51.960;5.886;2024-02-26T11:21:17;25.73;;;17.60;;
36799;SDS011;22752;51.960;5.886;2024-02-26T11:23:45;23.40;;;15.57;;
36799;SDS011;22752;51.960;5.886;2024-02-26T11:26:11;26.03;;;17.40;;
36799;SDS011;22752;51.960;5.886;2024-02-26T11:28:39;26.07;;;17.30;;
36799;SDS011;22752;51.960;5.886;2024-02-26T11:31:06;24.13;;;16.47;;
36799;SDS011;22752;51.960;5.886;2024-02-26T11:33:32;25.60;;;16.53;;
36799;SDS011;22752;51.960;5.886;2024-02-26T11:36:00;24.63;;;17.37;;
36799;SDS011;22752;51.960;5.886;2024-02-26T11:38:36;25.10;;;16.17;;
36799;SDS011;22752;51.960;5.886;2024-02-26T11:41:03;25.43;;;16.50;;
36799;SDS011;22752;51.960;5.886;2024-02-26T11:46:24;24.77;;;17.23;;
36799;SDS011;22752;51.960;5.886;2024-02-26T11:48:58;24.08;;;15.95;;
36799;SDS011;22752;51.960;5.886;2024-02-26T11:51:42;24.53;;;15.87;;
36799;SDS011;22752;51.960;5.886;2024-02-26T11:54:08;25.07;;;15.97;;
36799;SDS011;22752;51.960;5.886;2024-02-26T11:56:34;22.93;;;15.43;;
36799;SDS011;22752;51.960;5.886;2024-02-26T11:59:00;22.73;;;15.97;;
36799;SDS011;22752;51.960;5.886;2024-02-26T12:01:39;24.77;;;16.33;;
36799;SDS011;22752;51.960;5.886;2024-02-26T12:06:58;21.40;;;14.37;;
36799;SDS011;22752;51.960;5.886;2024-02-26T12:12:02;21.50;;;14.20;;
36799;SDS011;22752;51.960;5.886;2024-02-26T12:14:51;22.03;;;14.80;;
36799;SDS011;22752;51.960;5.886;2024-02-26T12:17:21;18.50;;;13.33;;
36799;SDS011;22752;51.960;5.886;2024-02-26T12:19:48;21.30;;;13.20;;
36799;SDS011;22752;51.960;5.886;2024-02-26T12:22:15;18.57;;;12.73;;
36799;SDS011;22752;51.960;5.886;2024-02-26T12:24:44;20.57;;;12.90;;
36799;SDS011;22752;51.960;5.886;2024-02-26T12:27:10;19.73;;;12.50;;
36799;SDS011;22752;51.960;5.886;2024-02-26T12:29:36;19.90;;;13.20;;
36799;SDS011;22752;51.960;5.886;2024-02-26T12:32:02;17.40;;;12.37;;
36799;SDS011;22752;51.960;5.886;2024-02-26T12:34:30;19.13;;;12.67;;
36799;SDS011;22752;51.960;5.886;2024-02-26T12:36:56;18.97;;;11.73;;
36799;SDS011;22752;51.960;5.886;2024-02-26T12:39:22;19.23;;;11.43;;
36799;SDS011;22752;51.960;5.886;2024-02-26T12:41:48;20.20;;;12.50;;
36799;SDS011;22752;51.960;5.886;2024-02-26T12:44:17;20.43;;;11.63;;
36799;SDS011;22752;51.960;5.886;2024-02-26T12:46:49;18.17;;;11.97;;
36799;SDS011;22752;51.960;5.886;2024-02-26T12:49:15;14.80;;;10.57;;
36799;SDS011;22752;51.960;5.886;2024-02-26T12:51:44;16.23;;;10.33;;
36799;SDS011;22752;51.960;5.886;2024-02-26T12:54:10;15.90;;;10.17;;
36799;SDS011;22752;51.960;5.886;2024-02-26T12:56:36;15.57;;;10.70;;
36799;SDS011;22752;51.960;5.886;2024-02-26T12:59:02;18.10;;;10.27;;
36799;SDS011;22752;51.960;5.886;2024-02-26T13:01:28;15.83;;;10.53;;
36799;SDS011;22752;51.960;5.886;2024-02-26T13:03:55;17.30;;;10.37;;
36799;SDS011;22752;51.960;5.886;2024-02-26T13:06:21;17.87;;;11.03;;
36799;SDS011;22752;51.960;5.886;2024-02-26T13:08:47;16.77;;;10.93;;
36799;SDS011;22752;51.960;5.886;2024-02-26T13:11:13;17.43;;;11.33;;
36799;SDS011;22752;51.960;5.886;2024-02-26T13:13:39;15.53;;;10.80;;
36799;SDS011;22752;51.960;5.886;2024-02-26T13:16:05;16.00;;;11.10;;
36799;SDS011;22752;51.960;5.886;2024-02-26T13:18:33;19.37;;;12.10;;
36799;SDS011;22752;51.960;5.886;2024-02-26T13:21:09;16.80;;;11.10;;
36799;SDS011;22752;51.960;5.886;2024-02-26T13:23:40;16.60;;;11.40;;
36799;SDS011;22752;51.960;5.886;2024-02-26T13:26:06;15.87;;;11.23;;
36799;SDS011;22752;51.960;5.886;2024-02-26T13:28:33;16.43;;;10.97;;
36799;SDS011;22752;51.960;5.886;2024-02-26T13:30:59;19.80;;;12.23;;
36799;SDS011;22752;51.960;5.886;2024-02-26T13:33:28;17.07;;;12.03;;
36799;SDS011;22752;51.960;5.886;2024-02-26T13:35:58;15.30;;;10.73;;
36799;SDS011;22752;51.960;5.886;2024-02-26T13:38:24;18.60;;;11.77;;
36799;SDS011;22752;51.960;5.886;2024-02-26T13:40:51;14.80;;;11.80;;
36799;SDS011;22752;51.960;5.886;2024-02-26T13:43:17;15.13;;;11.03;;
36799;SDS011;22752;51.960;5.886;2024-02-26T13:45:44;17.57;;;11.70;;
36799;SDS011;22752;51.960;5.886;2024-02-26T13:48:10;13.97;;;10.80;;
36799;SDS011;22752;51.960;5.886;2024-02-26T13:50:37;15.07;;;11.30;;
36799;SDS011;22752;51.960;5.886;2024-02-26T13:53:03;16.73;;;11.63;;
36799;SDS011;22752;51.960;5.886;2024-02-26T13:55:29;15.67;;;11.60;;
36799;SDS011;22752;51.960;5.886;2024-02-26T13:57:57;17.73;;;12.17;;
36799;SDS011;22752;51.960;5.886;2024-02-26T14:00:23;16.63;;;11.73;;
36799;SDS011;22752;51.960;5.886;2024-02-26T14:02:50;14.97;;;11.23;;
36799;SDS011;22752;51.960;5.886;2024-02-26T14:05:16;15.90;;;11.87;;
36799;SDS011;22752;51.960;5.886;2024-02-26T14:07:42;16.93;;;11.27;;
36799;SDS011;22752;51.960;5.886;2024-02-26T14:10:08;16.80;;;11.77;;
36799;SDS011;22752;51.960;5.886;2024-02-26T14:12:36;14.90;;;11.87;;
36799;SDS011;22752;51.960;5.886;2024-02-26T14:15:03;15.43;;;11.80;;
36799;SDS011;22752;51.960;5.886;2024-02-26T14:17:30;17.83;;;12.40;;
36799;SDS011;22752;51.960;5.886;2024-02-26T14:19:56;16.03;;;12.13;;
36799;SDS011;22752;51.960;5.886;2024-02-26T14:22:21;17.13;;;11.90;;
36799;SDS011;22752;51.960;5.886;2024-02-26T14:24:47;20.80;;;11.90;;
36799;SDS011;22752;51.960;5.886;2024-02-26T14:27:13;16.93;;;12.30;;
36799;SDS011;22752;51.960;5.886;2024-02-26T14:29:42;15.87;;;11.83;;
36799;SDS011;22752;51.960;5.886;2024-02-26T14:32:11;17.17;;;11.90;;
36799;SDS011;22752;51.960;5.886;2024-02-26T14:34:37;16.77;;;12.20;;
36799;SDS011;22752;51.960;5.886;2024-02-26T14:37:03;16.90;;;12.07;;